Home > Products > Valid Products > TAF

000
FTUS45 KABQ 302300
TAFSAF
TAF
KSAF 302333Z 3100/3124 12010KT P6SM BKN060
     FM310100 12015G25KT P6SM VCTS BKN060CB
     FM310300 12015G25KT P6SM VCSH SCT025 OVC040
     FM310700 12010KT P6SM SCT025 OVC040
     FM312000 21010KT P6SM VCTS BKN050CB
     FM312200 27010KT P6SM SCT025 OVC040=



000
FTUS45 KABQ 302300
TAFABQ
TAF
KABQ 302333Z 3100/3124 30005KT P6SM SCT080 SCT120
     FM310200 09015G25KT P6SM VCTS BKN080CB
     FM310500 09020G30KT P6SM VCSH SCT040 OVC080
     FM310900 09025G35KT P6SM SCT025 OVC060
     FM311300 09015G25KT P6SM SCT025 OVC060
     FM312000 27010KT P6SM VCSH SCT050 BKN100=



000
FTUS45 KABQ 302300
TAFROW
TAF
KROW 302333Z 3100/3124 36010KT P6SM SCT080
      TEMPO 3100/3102 VRB20G30KT 6SM -TSRA SCT040 BKN080CB
     FM310200 36015G25KT P6SM VCSH SCT025 OVC040
     FM310600 36010KT P6SM VCSH SCT015 OVC040
     FM311100 36010KT P6SM SCT015 OVC040
     FM311600 03010KT P6SM SCT025 OVC060=



000
FTUS45 KABQ 302300
TAFGUP
TAF
KGUP 302333Z 3100/3124 24010KT P6SM VCTS SCT080CB
     FM310300 33010G20KT P6SM VCSH BKN080
     FM310800 06006KT P6SM BKN080
     FM311800 27010KT P6SM VCSH BKN080
     FM312000 30015G25KT P6SM VCTS BKN080CB
     FM312200 30010G20KT P6SM VCSH OVC080=



000
FTUS45 KABQ 302300
TAFLVS
TAF
KLVS 302333Z 3100/3124 09010KT P6SM VCTS SCT040CB OVC080
      TEMPO 3101/3103 6SM -SHRA BR BKN025 OVC040
     FM310300 06010KT P6SM VCSH BKN025 OVC040
     FM310600 03005KT P6SM SCT025 OVC040
     FM311700 21010KT P6SM VCSH SCT025 OVC040=



000
FTUS45 KABQ 302300
TAFTCC
TAF
KTCC 302333Z 3100/3124 03015G25KT P6SM BKN100
     FM310500 06010KT P6SM SCT015 OVC040
     FM311500 06005KT P6SM OVC040=



000
FTUS45 KABQ 302300
TAFFMN
TAF
KFMN 302333Z 3100/3124 27010G20KT P6SM SCT100
     FM310300 06005KT P6SM VCSH BKN100
     FM310800 06005KT P6SM BKN100
     FM312000 27010G20KT P6SM VCSH SCT080 BKN150=



000
FTUS45 KABQ 302100 AAB
TAFGUP
TAF AMD
KGUP 302127Z 3021/3118 25012G20KT P6SM VCSH BKN090
     FM310100 22008KT P6SM BKN090
     FM310700 12009KT P6SM VCSH BKN070
     FM311600 22007KT P6SM BKN080=



000
FTUS45 KABQ 302100 AAB
TAFFMN
TAF AMD
KFMN 302126Z 3021/3118 30012G22KT P6SM SCT080
     FM310200 31008KT P6SM BKN100
     FM310800 10011KT P6SM BKN100=



000
FTUS45 KABQ 302100 AAB
TAFLVS
TAF AMD
KLVS 302126Z 3021/3118 08011KT P6SM VCSH BKN040
      TEMPO 3021/3101 4SM -TSRA OVC025CB
     FM310300 08008KT P6SM OVC025
     FM311500 19007KT P6SM BKN040=



000
FTUS45 KABQ 302000 AAA
TAFLVS
TAF AMD
KLVS 302013Z 3020/3118 08012KT P6SM VCSH SCT050 BKN080
      TEMPO 3021/3101 4SM -TSRA OVC025CB
     FM310300 08008KT P6SM OVC025
     FM311500 19007KT P6SM BKN040=



000
FTUS45 KABQ 302000 AAA
TAFGUP
TAF AMD
KGUP 302002Z 3020/3118 25012G20KT P6SM SCT080
     FM310100 22008KT P6SM BKN090
     FM310700 12009KT P6SM VCSH BKN070
     FM311600 22007KT P6SM BKN080=



000
FTUS45 KABQ 302000 AAA
TAFFMN
TAF AMD
KFMN 302001Z 3020/3118 26012G20KT P6SM SCT090
     FM310200 31008KT P6SM BKN100
     FM310800 10011KT P6SM BKN100=



000
FTUS45 KABQ 301900 AAA
TAFSAF
TAF AMD
KSAF 301951Z 3020/3118 25007KT P6SM VCTS BKN060CB
     FM310000 13015G25KT P6SM BKN060
      TEMPO 3100/3104 4SM -TSRA OVC030CB
     FM310400 12018G26KT P6SM VCSH BKN050
     FM310900 14011KT P6SM BKN050
     FM311200 15008KT P6SM OVC025
     FM311500 16008KT P6SM BKN040=



000
FTUS45 KABQ 301700
TAFTCC
TAF
KTCC 301735Z 3018/3118 04015G25KT P6SM BKN050
     FM310200 06014KT P6SM BKN120
     FM310900 01006KT P6SM BKN100
      TEMPO 3111/3114 BKN015
     FM311500 05006KT P6SM BKN100=



000
FTUS45 KABQ 301700
TAFABQ
TAF
KABQ 301735Z 3018/3118 28006KT P6SM FEW060
     FM302300 31006KT P6SM SCT070 BKN200
     FM310200 10020G32KT P6SM VCTS BKN080CB
     FM310500 09022G34KT P6SM VCSH OVC060
     FM311000 09014KT P6SM FEW050 BKN080
     FM311400 10009KT P6SM BKN060=



000
FTUS45 KABQ 301700
TAFROW
TAF
KROW 301735Z 3018/3118 01007KT P6SM SCT120
     FM310100 03014G22KT P6SM VCTS BKN060CB
     FM310400 36012G22KT P6SM VCSH BKN060
     FM310700 36010KT P6SM OVC050
     FM311400 05006KT P6SM SCT070 BKN200=



000
FTUS45 KABQ 301700
TAFFMN
TAF
KFMN 301735Z 3018/3118 25008KT P6SM FEW070
     FM302100 27011G21KT P6SM SCT100
     FM310200 31008KT P6SM BKN100
     FM310800 10011KT P6SM BKN100=



000
FTUS45 KABQ 301700
TAFSAF
TAF
KSAF 301735Z 3018/3118 25007KT P6SM SCT060
     FM310000 13015G25KT P6SM BKN060
      TEMPO 3100/3104 4SM -TSRA OVC030CB
     FM310400 12018G26KT P6SM VCSH BKN050
     FM310900 14011KT P6SM BKN050
     FM311200 15008KT P6SM OVC025
     FM311500 16008KT P6SM BKN040=



000
FTUS45 KABQ 301700
TAFLVS
TAF
KLVS 301735Z 3018/3118 05010KT P6SM SCT050
     FM302100 06012G22KT P6SM VCSH BKN050
      TEMPO 3022/3102 4SM -TSRA OVC025CB
     FM310300 08008KT P6SM OVC025
     FM311500 19007KT P6SM BKN040=



000
FTUS45 KABQ 301700
TAFGUP
TAF
KGUP 301735Z 3018/3118 25007KT P6SM SCT060
     FM302100 26011G21KT P6SM SCT080
     FM310100 22008KT P6SM BKN090
     FM310700 12009KT P6SM VCSH BKN070
     FM311600 22007KT P6SM BKN080=



000
FTUS45 KABQ 301500 AAA
TAFTCC
TAF AMD
KTCC 301506Z 3015/3112 03006KT P6SM BKN025
     FM301700 03014G22KT P6SM BKN050
     FM310200 04014KT P6SM SCT120
     FM310900 04006KT P6SM BKN020=



000
FTUS45 KABQ 301100 CCB
TAFROW
TAF COR
KROW 301145Z 3012/3112 VRB05KT P6SM SCT080 SCT130
     FM302000 22011KT P6SM VCSH SCT100
     FM310100 01012G22KT P6SM VCTS BKN060CB
     FM310300 36012G22KT P6SM VCSH SCT060 BKN100
     FM310700 36012G22KT P6SM BKN100
     FM311000 36012KT P6SM BKN020=



000
FTUS45 KABQ 301100 CCA
TAFROW
TAF COR
KROW 301143Z 3012/3112 VRB05KT P6SM SCT080 SCT130
     FM302000 22011KT P6SM VCSH SCT100
     FM310100 01012G22KT P6SM VCTS BKN060CB
     FM310300 36012G22KT P6SM VCSH SCT060 BKN100
     FM310700 36012G22KT P6SM BKN100=



000
FTUS45 KABQ 301100
TAFROW
TAF
KROW 301139Z 3012/3112 VRB05KT P6SM SCT080 SCT130
     FM301600 20008KT P6SM SCT120
     FM302000 22011KT P6SM VCSH SCT100
     FM310100 01012G20KT P6SM VCTS SCT060CB BKN120
     FM310300 36012G20KT P6SM VCSH SCT060 BKN100=



000
FTUS45 KABQ 301100
TAFTCC
TAF
KTCC 301139Z 3012/3112 26008KT P6SM SCT060 BKN080
     FM301500 02015G25KT P6SM SCT060
     FM310200 04014KT P6SM SCT120
     FM310900 04006KT P6SM BKN020=



000
FTUS45 KABQ 301100
TAFABQ
TAF
KABQ 301139Z 3012/3112 30005KT P6SM SCT090
     FM301800 29010KT P6SM SCT100
     FM310200 09015KT P6SM VCSH FEW050 BKN090
     FM310400 09020G32KT P6SM VCSH FEW050 BKN090
     FM310900 09014G24KT P6SM FEW050 BKN100=



000
FTUS45 KABQ 301100
TAFLVS
TAF
KLVS 301139Z 3012/3112 02009KT P6SM SCT035
     FM301900 07012G22KT P6SM VCSH SCT050 BKN100
      TEMPO 3019/3022 VRB20G30KT -TSRA BKN050CB
     FM302200 07011G21KT P6SM VCSH BKN060
     FM310000 07011G21KT P6SM VCTS BKN060CB
     FM310200 02009KT P6SM VCSH SCT015 BKN035
     FM310500 03007KT P6SM VCSH BKN015=



000
FTUS45 KABQ 301100
TAFSAF
TAF
KSAF 301139Z 3012/3112 36008KT P6SM SCT080
     FM301800 29010KT P6SM FEW080
     FM310000 15011G18KT P6SM VCTS BKN080CB
     FM310300 14015G25KT P6SM VCSH BKN080
     FM310900 14011KT P6SM BKN090=



000
FTUS45 KABQ 301100
TAFFMN
TAF
KFMN 301139Z 3012/3112 VRB06KT P6SM SCT120
     FM302000 27011G21KT P6SM SCT120
     FM310100 31010KT P6SM VCSH BKN100
     FM310600 09007KT P6SM SCT120=



000
FTUS45 KABQ 301100
TAFGUP
TAF
KGUP 301139Z 3012/3112 VRB05KT P6SM SCT100
     FM302000 26011G21KT P6SM SCT080
     FM310100 31009KT P6SM VCSH BKN090
     FM310600 VRB06KT P6SM BKN100=



000
FTUS45 KABQ 300700 AAA
TAFSAF
TAF AMD
KSAF 300751Z 3008/3106 34008KT P6SM VCSH SCT060 BKN080
      TEMPO 3008/3010 VRB15G25KT 6SM -TSRA BKN060CB
     FM301000 35008KT P6SM SCT080
     FM301800 30010KT P6SM FEW080
     FM310000 15011G18KT P6SM VCTS SCT070CB SCT150
     FM310300 14015G23KT P6SM VCSH SCT060 BKN130=



000
FTUS45 KABQ 300700 AAA
TAFABQ
TAF AMD
KABQ 300747Z 3008/3106 14011KT P6SM VCSH BKN070 BKN110
      TEMPO 3008/3009 VRB11G21KT -TSRA BKN070CB
     FM300900 VRB05KT P6SM FEW015 SCT060 SCT110
     FM301500 30005KT P6SM SCT090
     FM301800 29010KT P6SM FEW080
     FM310200 09015KT P6SM VCSH SCT070 SCT150=



000
FTUS45 KABQ 300700 AAA
TAFLVS
TAF AMD
KLVS 300724Z 3007/3106 20007KT P6SM SCT035
     FM301100 33008KT P6SM SCT035 SCT090
     FM302200 07012G20KT P6SM VCTS SCT050CB BKN130
     FM310300 02011KT P6SM VCSH BKN035 BKN060=



000
FTUS45 KABQ 300700 AAA
TAFTCC
TAF AMD
KTCC 300724Z 3007/3106 20008KT P6SM SCT060 BKN080
     FM301500 33010KT P6SM SCT060
     FM302000 02013G21KT P6SM VCSH SCT060 SCT120
     FM310000 05012G20KT P6SM SCT120=



000
FTUS45 KABQ 300500
TAFFMN
TAF
KFMN 300526Z 3006/3106 09007KT P6SM SCT080 SCT110
     FM301900 27011KT P6SM FEW080
     FM302100 28012G20KT P6SM FEW080
     FM310100 02011KT P6SM VCSH SCT070 SCT150=



000
FTUS45 KABQ 300500
TAFROW
TAF
KROW 300526Z 3006/3106 VRB05KT P6SM SCT080 SCT130
     FM301600 20008KT P6SM SCT120
     FM302000 22011KT P6SM VCSH SCT100
     FM310100 01012G20KT P6SM VCTS SCT060CB BKN120
     FM310300 36012G20KT P6SM VCSH SCT060 BKN100=



000
FTUS45 KABQ 300500
TAFTCC
TAF
KTCC 300526Z 3006/3106 20010KT P6SM VCTS SCT060CB BKN090
      TEMPO 3006/3009 5SM -SHRA BKN035
     FM300900 20008KT P6SM SCT035 BKN060
     FM301500 33010KT P6SM SCT060
     FM302000 02013G21KT P6SM VCSH SCT060 SCT120
     FM310000 05012G20KT P6SM SCT120=



000
FTUS45 KABQ 300500
TAFSAF
TAF
KSAF 300526Z 3006/3106 34008KT P6SM VCTS SCT050CB BKN080
     FM300800 35005KT P6SM SCT080
     FM301800 30010KT P6SM FEW080
     FM310000 15011G18KT P6SM VCTS SCT070CB SCT150
     FM310300 14015G23KT P6SM VCSH SCT060 BKN130=



000
FTUS45 KABQ 300500
TAFLVS
TAF
KLVS 300526Z 3006/3106 06011KT P6SM SCT015 SCT035
      TEMPO 3006/3010 BKN025
     FM301100 33008KT P6SM SCT035 SCT090
     FM302200 07012G20KT P6SM VCTS SCT050CB BKN130
     FM310300 02011KT P6SM VCSH BKN035 BKN060=



000
FTUS45 KABQ 300500
TAFGUP
TAF
KGUP 300526Z 3006/3106 VRB05KT P6SM SCT100
     FM301900 25011KT P6SM FEW080
     FM302200 26012G20KT P6SM SCT080
     FM310100 VRB05KT P6SM VCSH SCT070 SCT150=



000
FTUS45 KABQ 300500
TAFABQ
TAF
KABQ 300526Z 3006/3106 14011KT P6SM VCSH BKN070 BKN110
     FM300900 VRB05KT P6SM FEW015 SCT060 SCT110
     FM301500 30005KT P6SM SCT090
     FM301800 29010KT P6SM FEW080
     FM310200 09015KT P6SM VCSH SCT070 SCT150=



000
FTUS45 KABQ 300400 AAB
TAFABQ
TAF AMD
KABQ 300403Z 3004/3024 30013KT P6SM VCTS SCT050CB BKN100
      TEMPO 3004/3005 VRB25G33KT 5SM TSRA BKN040CB
     FM300500 09010KT P6SM VCSH SCT060 BKN120
     FM300900 VRB05KT P6SM SCT050 SCT080
     FM301800 28010KT P6SM FEW080=



000
FTUS45 KABQ 300100 AAA
TAFSAF
TAF AMD
KSAF 300122Z 3001/3024 10008KT P6SM VCTS SCT060CB BKN150
      TEMPO 3001/3002 VRB15G25KT 5SM TSRA BKN050CB
     FM300300 35008KT P6SM SCT080
     FM301800 30010KT P6SM FEW080
     FM302200 31011KT P6SM VCSH SCT070=



000
FTUS45 KABQ 300100 AAA
TAFABQ
TAF AMD
KABQ 300120Z 3001/3024 09008KT P6SM VCTS SCT050CB BKN100
      TEMPO 3001/3002 VRB15G25KT 5SM TSRA BKN050CB
     FM300300 09010KT P6SM VCSH SCT060 BKN120
     FM300900 VRB05KT P6SM SCT050 SCT080
     FM301800 28010KT P6SM FEW080=



000
FTUS45 KABQ 292300
TAFTCC
TAF
KTCC 292338Z 3000/3024 21011KT P6SM FEW090 BKN200
     FM300300 17010KT P6SM VCTS SCT060CB BKN090
      TEMPO 3004/3007 6SM RA BKN040
     FM300700 20008KT P6SM VCSH SCT060 SCT100
     FM300900 30008KT P6SM FEW100
     FM302100 04013KT P6SM SCT090=



000
FTUS45 KABQ 292300
TAFSAF
TAF
KSAF 292338Z 3000/3024 36008KT P6SM FEW090 SCT200
     FM300200 35008KT P6SM SCT080
     FM301800 30010KT P6SM FEW080
     FM302200 31011KT P6SM VCSH SCT070=



000
FTUS45 KABQ 292300
TAFROW
TAF
KROW 292338Z 3000/3024 VRB06KT P6SM FEW110 BKN200
     FM300200 17008KT P6SM VCTS SCT090CB BKN150
     FM300500 02006KT P6SM VCSH BKN060
     FM301000 VRB05KT P6SM SCT100
     FM301800 33007KT P6SM SCT100=



000
FTUS45 KABQ 292300
TAFLVS
TAF
KLVS 292338Z 3000/3024 22010KT P6SM VCSH SCT070 BKN110
     FM300600 VRB06KT P6SM SCT100
     FM302100 12010KT P6SM VCSH SCT070
     FM302300 07011G18KT P6SM VCTS BKN050CB=



000
FTUS45 KABQ 292300
TAFABQ
TAF
KABQ 292338Z 3000/3024 09008KT P6SM VCSH SCT050 SCT080
     FM300900 VRB05KT P6SM SCT050 SCT080
     FM301800 28010KT P6SM FEW080=



000
FTUS45 KABQ 292300
TAFGUP
TAF
KGUP 292338Z 3000/3024 26011KT P6SM VCSH BKN090
     FM300200 VRB05KT P6SM SCT080
     FM302000 25011KT P6SM FEW080=



000
FTUS45 KABQ 292300
TAFFMN
TAF
KFMN 292338Z 3000/3024 29011KT P6SM SCT090
     FM300200 09007KT P6SM SCT090
     FM301900 26011KT P6SM FEW080=



000
FTUS45 KABQ 292200 AAA
TAFABQ
TAF AMD
KABQ 292229Z 2922/3018 31011G18KT P6SM VCTS BKN060CB BKN130
      TEMPO 2922/2924 VRB15G25KT 3SM TSRA BKN040CB
     FM300000 33007KT P6SM -SHRA SCT040 BKN100
     FM300300 11010KT P6SM SCT040 BKN120
     FM300500 VRB05KT P6SM FEW040 SCT200=



000
FTUS45 KABQ 292100 AAA
TAFROW
TAF AMD
KROW 292146Z 2922/3018 14007KT P6SM SCT070 BKN120
     FM300100 18010KT P6SM VCTS SCT060CB BKN100
      TEMPO 3001/3004 VRB10G20KT 5SM SHRA BKN050
     FM300400 21008KT P6SM SCT150
     FM300700 VRB05KT P6SM -RA BKN050
     FM301000 VRB05KT P6SM SCT150=



000
FTUS45 KABQ 292100 AAA
TAFTCC
TAF AMD
KTCC 292144Z 2922/3018 22015KT P6SM SCT050 BKN200
     FM292200 25015KT P6SM VCSH SCT040 BKN070
     FM300000 22015KT P6SM VCTS SCT050CB BKN080
      TEMPO 3000/3004 VRB15G25KT 4SM SHRA BKN040
     FM300400 19010KT P6SM VCSH SCT060 BKN100
     FM300600 18009KT P6SM -RA BKN030
     FM301000 VRB05KT P6SM SCT150=



000
FTUS45 KABQ 292100 AAB
TAFSAF
TAF AMD
KSAF 292128Z 2921/3018 34011KT P6SM VCSH SCT060 BKN100
      TEMPO 2921/2924 VRB10G20KT 5SM SHRA BKN040
     FM300200 35008KT P6SM FEW040 SCT200=



000
FTUS45 KABQ 292000 AAA
TAFSAF
TAF AMD
KSAF 292011Z 2920/3018 26010KT P6SM VCTS SCT050CB BKN100
      TEMPO 2920/2923 VRB15G25KT 3SM -TSRA BKN030CB
     FM292300 33011KT P6SM VCSH SCT050 BKN110
     FM300200 35008KT P6SM FEW040 SCT200=



000
FTUS45 KABQ 291700 RRA
TAFSAF
TAF
KSAF 291759Z 2918/3018 20008KT P6SM VCSH FEW025 BKN050
     FM292000 26010KT P6SM VCTS SCT050CB BKN100
      TEMPO 2920/2923 VRB15G25KT 4SM SHRA BKN040
     FM292300 33011KT P6SM VCSH SCT050 BKN110
     FM300200 35008KT P6SM FEW040 SCT200=



000
FTUS45 KABQ 291700 RRA
TAFABQ
TAF
KABQ 291759Z 2918/3018 VRB05KT P6SM SCT035 BKN120
     FM292100 29011G18KT P6SM VCTS SCT050CB BKN120
      TEMPO 2921/2924 VRB15G25KT 5SM SHRA BKN040
     FM300000 33007KT P6SM -SHRA SCT040 BKN100
     FM300300 11010KT P6SM SCT040 BKN120
     FM300500 VRB05KT P6SM FEW040 SCT200=



000
FTUS45 KABQ 291700 RRA
TAFGUP
TAF
KGUP 291759Z 2918/3018 26006KT P6SM SCT070
     FM292200 27013KT P6SM VCSH SCT080 BKN120
     FM300400 13006KT P6SM SCT060 BKN150
     FM300600 VRB04KT P6SM SCT200=



000
FTUS45 KABQ 291700 RRA
TAFTCC
TAF
KTCC 291759Z 2918/3018 20011KT P6SM SCT050 BKN150
     FM292000 20010KT P6SM VCSH SCT040 BKN070
     FM292200 22015KT P6SM VCTS SCT050CB BKN080
      TEMPO 2922/3002 VRB15G25KT 4SM SHRA BKN040
     FM300200 19010KT P6SM VCSH SCT060 BKN100
     FM300400 18009KT P6SM -RA BKN030
     FM300900 VRB05KT P6SM SCT150=



000
FTUS45 KABQ 291700 RRA
TAFFMN
TAF
KFMN 291759Z 2918/3018 29010KT P6SM SCT070
     FM292030 29011G19KT P6SM VCSH BKN080
     FM300200 10007KT P6SM SCT200=



000
FTUS45 KABQ 291700 RRA
TAFROW
TAF
KROW 291759Z 2918/3018 VRB05KT 5SM -RA BKN100
     FM291930 15007KT P6SM SCT080
     FM300000 18010KT P6SM VCSH SCT060 BKN100
     FM300300 21008KT P6SM SCT150
     FM300600 VRB05KT P6SM -RA BKN050
     FM301000 VRB05KT P6SM SCT150=



000
FTUS45 KABQ 291700 RRA
TAFLVS
TAF
KLVS 291759Z 2918/3018 20011KT P6SM VCSH SCT015 BKN080
     FM292000 21014KT P6SM VCTS SCT050CB BKN080
      TEMPO 2920/2924 VRB15G25KT 5SM SHRA BKN030
     FM300000 25015KT P6SM VCSH SCT060 BKN130
     FM300200 VRB05KT P6SM FEW040 SCT100 BKN200=



000
FTUS45 KABQ 291600 AAB
TAFSAF
TAF AMD
KSAF 291656Z 2917/3012 VRB05KT P6SM SCT050 BKN100
      TEMPO 2917/2918 BKN015
     FM292000 26010KT P6SM VCTS SCT050CB BKN110
      TEMPO 2920/2923 4SM SHRA BKN040
     FM292300 32010KT P6SM VCSH SCT060 BKN120
     FM300200 35008KT P6SM SCT120=



000
FTUS45 KABQ 291600 AAB
TAFABQ
TAF AMD
KABQ 291651Z 2917/3012 24010KT P6SM BKN040
     FM292030 29011G18KT P6SM VCTS SCT050CB BKN120
     FM300000 28010KT P6SM VCSH SCT060 BKN120
     FM300300 13008KT P6SM SCT150
     FM300500 VRB05KT P6SM SCT150=



000
FTUS45 KABQ 291600 AAC
TAFROW
TAF AMD
KROW 291623Z 2916/3012 VRB05KT 5SM -RA BKN080 OVC100
      TEMPO 2916/2917 3SM -RA BKN004
     FM291800 14007KT P6SM SCT080
     FM292000 18010G18KT P6SM SCT080 BKN150
     FM300000 18010KT P6SM VCSH SCT060 BKN100
     FM300200 35005KT P6SM SCT130=



000
FTUS45 KABQ 291600 AAD
TAFLVS
TAF AMD
KLVS 291621Z 2916/3012 19011KT P6SM SCT015 BKN080
      TEMPO 2916/2918 BKN004
     FM291800 20013KT P6SM SCT035 BKN100
     FM292000 21013G22KT P6SM VCTS SCT050CB BKN080
     FM300000 21012G21KT P6SM VCSH SCT060 BKN130
     FM300200 35006KT P6SM BKN130=



000
FTUS45 KABQ 291500 AAA
TAFABQ
TAF AMD
KABQ 291538Z 2916/3012 VRB05KT P6SM BKN040
      TEMPO 2916/2918 BKN025
     FM292200 23010KT P6SM VCTS SCT060CB BKN110
     FM300000 28010KT P6SM VCSH SCT060 BKN120
     FM300300 13008KT P6SM SCT150
     FM300500 VRB05KT P6SM SCT150=



000
FTUS45 KABQ 291400 AAB
TAFROW
TAF AMD
KROW 291423Z 2914/3012 33007KT P6SM -RA BKN070 OVC100
     FM291700 15008KT P6SM VCSH SCT080 BKN120
     FM292000 18010G18KT P6SM SCT080 BKN150
     FM300000 18010KT P6SM VCSH SCT060 BKN100
     FM300200 35005KT P6SM SCT130=



000
FTUS45 KABQ 291400 AAC
TAFLVS
TAF AMD
KLVS 291421Z 2914/3012 18011KT P6SM SCT040 BKN080
      TEMPO 2914/2916 BKN004
     FM291800 19012KT P6SM SCT080 BKN120
     FM292100 21012G21KT P6SM VCTS SCT050CB BKN080
     FM300000 21012G21KT P6SM VCSH SCT060 BKN130
     FM300200 35006KT P6SM BKN130=



000
FTUS45 KABQ 291400 AAA
TAFSAF
TAF AMD
KSAF 291418Z 2914/3012 15008KT P6SM SCT040
      TEMPO 2914/2916 BKN015
     FM292000 23010KT P6SM VCTS SCT050CB BKN110
     FM292300 28010KT P6SM SCT060 BKN120
     FM300100 33008KT P6SM SCT120
     FM300500 36006KT P6SM SCT150=



000
FTUS45 KABQ 291300 AAB
TAFLVS
TAF AMD
KLVS 291324Z 2913/3012 16008KT P6SM VCSH SCT040 BKN070
      TEMPO 2913/2915 BKN030
     FM291500 19010KT P6SM BKN070
     FM291900 21012G20KT P6SM VCTS SCT050CB BKN080
     FM292200 21012G20KT P6SM VCSH SCT060 BKN130
     FM300200 35006KT P6SM BKN130=



000
FTUS45 KABQ 291200 AAA
TAFTCC
TAF AMD
KTCC 291252Z 2913/3012 VRB06KT P6SM -RA SCT025 BKN035 OVC050
     FM291600 17010KT P6SM VCSH BKN035 BKN060
     FM292200 20015G23KT P6SM VCTS SCT050CB BKN080
     FM300100 19010KT P6SM VCSH SCT080 SCT130
     FM300300 20009KT P6SM SCT120=



000
FTUS45 KABQ 291200 AAA
TAFROW
TAF AMD
KROW 291252Z 2913/3012 15008KT P6SM -RA BKN050
     FM291500 15008KT P6SM VCSH SCT050 BKN090
     FM291900 18010G18KT P6SM SCT060 SCT110
     FM300000 18010KT P6SM VCSH SCT060 BKN100
     FM300200 35005KT P6SM SCT130=



000
FTUS45 KABQ 291200 AAA
TAFLVS
TAF AMD
KLVS 291202Z 2912/3012 16008KT P6SM VCSH SCT040 BKN070
      TEMPO 2912/2915 3SM BR BKN005
     FM291500 19010KT P6SM BKN070
     FM291900 21012G20KT P6SM VCTS SCT050CB BKN080
     FM292200 21012G20KT P6SM VCSH SCT060 BKN130
     FM300200 35006KT P6SM BKN130=



000
FTUS45 KABQ 291100
TAFABQ
TAF
KABQ 291126Z 2912/3012 VRB06KT P6SM SCT070 BKN100
     FM292100 23010KT P6SM VCTS SCT060CB BKN110
     FM292300 28010KT P6SM SCT060 SCT130
     FM300100 15008KT P6SM SCT150
     FM300400 VRB05KT P6SM SCT150=



000
FTUS45 KABQ 291100
TAFROW
TAF
KROW 291126Z 2912/3012 15008KT P6SM VCSH BKN050
      TEMPO 2912/2915 5SM RA BR BKN030
     FM291500 15008KT P6SM VCSH SCT050 BKN090
     FM291900 18010G18KT P6SM SCT060 SCT110
     FM300000 18010KT P6SM VCSH SCT060 BKN100
     FM300200 35005KT P6SM SCT130=



000
FTUS45 KABQ 291100
TAFLVS
TAF
KLVS 291126Z 2912/3012 16008KT P6SM VCSH SCT040 BKN070
     FM291500 19010KT P6SM BKN070
     FM291900 21012G20KT P6SM VCTS SCT050CB BKN080
     FM292200 21012G20KT P6SM VCSH SCT060 BKN130
     FM300200 35006KT P6SM BKN130=



000
FTUS45 KABQ 291100
TAFGUP
TAF
KGUP 291126Z 2912/3012 26006KT P6SM BKN100
     FM291900 27012KT P6SM VCTS SCT060CB BKN080
     FM292100 29010G18KT P6SM SCT080
     FM300100 VRB05KT P6SM SCT130=



000
FTUS45 KABQ 291100
TAFSAF
TAF
KSAF 291126Z 2912/3012 16008KT P6SM SCT050 BKN090
     FM291900 23010KT P6SM VCTS SCT050CB BKN110
     FM292200 28010KT P6SM SCT060 SCT120
     FM300100 33008KT P6SM SCT130
     FM300500 36006KT P6SM SCT150=



000
FTUS45 KABQ 291100
TAFFMN
TAF
KFMN 291126Z 2912/3012 06005KT P6SM BKN070
     FM291700 29010KT P6SM VCSH BKN070
     FM292000 29011G19KT P6SM SCT070
     FM300100 10007KT P6SM SCT150=



000
FTUS45 KABQ 291100
TAFTCC
TAF
KTCC 291126Z 2912/3012 VRB06KT P6SM -RA SCT025 BKN035 OVC050
      TEMPO 2912/2915 5SM RA BR BKN025
     FM291600 17010KT P6SM VCSH BKN035 BKN060
     FM292200 20015G23KT P6SM VCTS SCT050CB BKN080
     FM300100 19010KT P6SM VCSH SCT080 SCT130
     FM300300 20009KT P6SM SCT120=



000
FTUS45 KABQ 290900 AAB
TAFROW
TAF AMD
KROW 290959Z 2910/3006 15008KT P6SM -RA BKN050
     FM291500 15008KT P6SM VCSH SCT050 BKN090
     FM291900 18010G18KT P6SM VCSH SCT060 SCT110
     FM300000 21010KT P6SM VCTS SCT060CB BKN100
     FM300200 15005KT P6SM SCT130=



000
FTUS45 KABQ 290900 AAB
TAFLVS
TAF AMD
KLVS 290959Z 2910/3006 16008KT P6SM -RA BKN050
     FM291500 19010KT P6SM SCT025 BKN050
     FM292000 23012G20KT P6SM VCTS SCT050CB BKN080
     FM300100 26010KT P6SM SCT060 SCT130=



000
FTUS45 KABQ 290700 AAA
TAFROW
TAF AMD
KROW 290736Z 2908/3006 15010KT P6SM VCSH SCT050 BKN090
     FM291000 15008KT 6SM RA BR BKN030
     FM291500 15008KT P6SM VCSH SCT050 BKN090
     FM291900 18010G18KT P6SM VCSH SCT060 SCT110
     FM300000 21010KT P6SM VCTS SCT060CB BKN100
     FM300200 15005KT P6SM SCT130=



000
FTUS45 KABQ 290700 AAA
TAFLVS
TAF AMD
KLVS 290729Z 2907/3006 18011KT P6SM VCSH SCT035 OVC060
     FM291000 16008KT 5SM RA BR BKN019
     FM291500 19010KT P6SM SCT025 BKN050
     FM292000 23012G20KT P6SM VCTS SCT050CB BKN080
     FM300100 26010KT P6SM SCT060 SCT130=



000
FTUS45 KABQ 290500
TAFTCC
TAF
KTCC 290520Z 2906/3006 17005KT P6SM VCSH FEW060 BKN110
     FM290900 VRB06KT 6SM RA BR BKN030 OVC050
     FM291600 17010KT P6SM VCSH BKN035 BKN060
     FM292200 22015G23KT P6SM VCTS SCT050CB BKN080
     FM300100 19010KT P6SM VCSH SCT080 SCT130=



000
FTUS45 KABQ 290500
TAFGUP
TAF
KGUP 290520Z 2906/3006 VRB05KT P6SM VCSH SCT060 BKN080
     FM291200 VRB03KT P6SM SCT060
     FM291700 26008KT P6SM VCTS SCT050CB BKN080
     FM292000 28010G18KT P6SM SCT080
     FM300100 VRB05KT P6SM SCT130=



000
FTUS45 KABQ 290500
TAFFMN
TAF
KFMN 290520Z 2906/3006 09008KT P6SM VCSH BKN070
     FM291200 06005KT P6SM BKN070
     FM291700 29010KT P6SM VCSH BKN070
     FM292000 28011G19KT P6SM SCT070
     FM300100 10007KT P6SM SCT150=



000
FTUS45 KABQ 290500
TAFLVS
TAF
KLVS 290520Z 2906/3006 18011KT P6SM VCTS BKN035CB OVC050
      TEMPO 2906/2908 5SM RA BR BKN025
     FM290900 16008KT 5SM RA BR BKN019
     FM291500 19010KT P6SM SCT025 BKN050
     FM292000 23012G20KT P6SM VCTS SCT050CB BKN080
     FM300100 26010KT P6SM SCT060 SCT130=



000
FTUS45 KABQ 290500
TAFABQ
TAF
KABQ 290520Z 2906/3006 10010KT P6SM VCSH SCT050 BKN080
     FM291200 VRB06KT P6SM SCT050 BKN100
     FM291900 21010KT P6SM VCSH SCT060 BKN110
     FM292200 26010KT P6SM SCT060 SCT130
     FM300100 15008KT P6SM SCT150=



000
FTUS45 KABQ 290500
TAFSAF
TAF
KSAF 290520Z 2906/3006 15008KT P6SM VCSH SCT060 BKN080
      TEMPO 2906/2910 6SM -SHRA BKN060
     FM291100 16010KT P6SM VCSH BKN035
     FM291500 16008KT P6SM SCT050 BKN090
     FM291900 23010KT P6SM VCTS SCT050CB BKN110
     FM292200 28010KT P6SM SCT060 SCT120
     FM300100 33008KT P6SM SCT130=



000
FTUS45 KABQ 290500
TAFROW
TAF
KROW 290520Z 2906/3006 15010KT P6SM VCTS SCT050CB BKN090
      TEMPO 2906/2910 VRB15G25KT 4SM TSRA BKN040CB
     FM291000 15008KT 6SM RA BR BKN030
     FM291500 15008KT P6SM VCSH SCT050 BKN090
     FM291900 18010G18KT P6SM VCSH SCT060 SCT110
     FM300000 21010KT P6SM VCTS SCT060CB BKN100
     FM300200 15005KT P6SM SCT130=



000
FTUS45 KABQ 290400 AAA
TAFLVS
TAF AMD
KLVS 290423Z 2904/2924 18011KT P6SM VCTS BKN035CB
      TEMPO 2904/2907 5SM RA BR BKN025
     FM290700 16008KT 6SM RA BR BKN020
     FM291500 19011KT P6SM SCT035 BKN090
     FM292100 20013KT P6SM VCTS SCT050CB BKN090=



000
FTUS45 KABQ 290400 AAA
TAFROW
TAF AMD
KROW 290405Z 2904/2924 09010KT P6SM VCTS SCT050CB BKN090
      TEMPO 2904/2906 VRB15G25KT 5SM TSRA BKN040CB
     FM290800 07008KT 6SM RA BR BKN030
     FM291500 15008KT P6SM SCT050 BKN090
     FM291900 18012G20KT P6SM SCT060 SCT110=



000
FTUS45 KABQ 290200 AAA
TAFSAF
TAF AMD
KSAF 290231Z 2903/2924 16010KT P6SM VCSH SCT060 BKN090
      TEMPO 2903/2905 VRB15G23KT -SHRA BKN050
     FM290900 16010KT P6SM BKN030
     FM291500 25008KT P6SM VCSH SCT050 SCT110
     FM291900 26010KT P6SM VCTS SCT060CB BKN110
     FM292200 30011KT P6SM VCSH SCT070 SCT120=



000
FTUS45 KABQ 290200 AAA
TAFABQ
TAF AMD
KABQ 290227Z 2902/2924 09012KT P6SM VCSH SCT060 BKN090
     FM290600 VRB06KT P6SM FEW050 SCT110
     FM291900 23010KT P6SM VCTS SCT060CB BKN120
     FM292200 27010KT P6SM SCT070 SCT130=



000
FTUS45 KABQ 290100 AAA
TAFTCC
TAF AMD
KTCC 290109Z 2901/2924 17006KT P6SM VCSH FEW060 BKN110
     FM290800 20010KT P6SM -SHRA BKN035 OVC050
     FM291200 20006KT P6SM BKN020
     FM291600 21013KT P6SM BKN050 BKN080
     FM292200 22015G23KT P6SM VCTS SCT050CB BKN080=



000
FTUS45 KABQ 290000 CCA
TAFTCC
TAF COR
KTCC 290000Z 2900/2924 25011KT P6SM VCSH SCT050 OVC080
      TEMPO 2901/2903 VRB15G25KT 5SM TSRA BKN040CB
     FM290300 16008KT P6SM VCSH SCT040 BKN070
     FM290800 20010KT P6SM -SHRA BKN035 OVC050
     FM291200 20006KT P6SM BKN020
     FM291600 21013KT P6SM BKN050 BKN080
     FM292200 22015G23KT P6SM VCTS SCT050CB BKN080=



000
FTUS45 KABQ 282300
TAFABQ
TAF
KABQ 282340Z 2900/2924 17011KT P6SM VCTS SCT080CB BKN130
      TEMPO 2900/2903 VRB15G25KT -SHRA BKN070
     FM290300 11011G19KT P6SM VCSH FEW050 BKN090
     FM290700 VRB06KT P6SM FEW050 SCT110
     FM291900 23010KT P6SM VCTS SCT060CB BKN120
     FM292200 27010KT P6SM SCT070 SCT130=



000
FTUS45 KABQ 282300
TAFSAF
TAF
KSAF 282340Z 2900/2924 16010KT P6SM VCTS SCT060CB BKN120
      TEMPO 2900/2903 VRB15G25KT 5SM TSRA BKN050CB
     FM290300 10010KT P6SM -SHRA BKN040
     FM290900 16010KT P6SM BKN030
     FM291500 25008KT P6SM VCSH SCT050 SCT110
     FM291900 26010KT P6SM VCTS SCT060CB BKN110
     FM292200 30011KT P6SM VCSH SCT070 SCT120=



000
FTUS45 KABQ 282300
TAFGUP
TAF
KGUP 282340Z 2900/2924 15010KT P6SM VCTS SCT060CB BKN100
      TEMPO 2900/2902 VRB15G25KT 5SM TSRA BKN050CB
     FM290200 10008KT P6SM VCSH SCT035 BKN050
     FM291000 VRB03KT P6SM BKN035
     FM291600 22005KT P6SM VCSH SCT040 BKN080
     FM292100 26011G19KT P6SM SCT090=



000
FTUS45 KABQ 282300
TAFLVS
TAF
KLVS 282340Z 2900/2924 18011G19KT P6SM VCSH SCT050 SCT090
     FM290200 17010KT P6SM VCSH SCT050 BKN080
     FM290900 16008KT P6SM VCSH BKN020
     FM291600 19011KT P6SM SCT035 BKN090
     FM291900 20013KT P6SM VCTS SCT050CB BKN090=



000
FTUS45 KABQ 282300
TAFTCC
TAF
KTCC 282340Z 2900/2924 14011KT P6SM VCTS SCT050CB OVC080
      TEMPO 2900/2902 VRB15G25KT 5SM TSRA BKN040CB
     FM290200 16008KT P6SM VCSH SCT040 BKN070
     FM290800 20010KT P6SM -SHRA BKN035 OVC050
     FM291200 20006KT P6SM BKN020
     FM291600 21013KT P6SM BKN050 BKN080
     FM292200 22015G23KT P6SM VCTS SCT050CB BKN080=



000
FTUS45 KABQ 282300
TAFFMN
TAF
KFMN 282340Z 2900/2924 13011KT P6SM VCTS SCT060CB BKN100
      TEMPO 2900/2902 VRB15G25KT 6SM TSRA BKN060CB
     FM290200 12010KT P6SM VCSH BKN100
     FM290900 VRB05KT P6SM SCT120
     FM291700 29010KT P6SM VCSH BKN070
     FM292000 28011G19KT P6SM SCT080=



000
FTUS45 KABQ 282300
TAFROW
TAF
KROW 282340Z 2900/2924 13011KT P6SM SCT080 BKN110
     FM290400 08010KT P6SM VCTS SCT050CB BKN080
     FM290700 08008KT P6SM VCSH FEW035 BKN070
     FM291500 15008KT P6SM SCT050 BKN090
     FM291900 18012G20KT P6SM SCT060 SCT110=



000
FTUS45 KABQ 282100 AAA
TAFABQ
TAF AMD
KABQ 282152Z 2822/2918 21011KT P6SM SCT060 BKN120
     FM282300 14013G19KT P6SM VCTS SCT070CB BKN120
      TEMPO 2823/2903 VRB15G25KT -SHRA BKN060
     FM290300 11015G25KT P6SM VCSH FEW050 BKN100
     FM290600 13007KT P6SM FEW040 SCT120 BKN200=



000
FTUS45 KABQ 282100 AAB
TAFFMN
TAF AMD
KFMN 282151Z 2822/2918 16011KT P6SM VCTS SCT060CB BKN100
      TEMPO 2822/2901 VRB15G25KT -TSRA BKN060CB
     FM290100 12010KT P6SM VCSH BKN100
     FM290900 VRB05KT P6SM SCT120 BKN200=



000
FTUS45 KABQ 282100 AAA
TAFSAF
TAF AMD
KSAF 282150Z 2822/2918 21011KT P6SM VCSH BKN060
     FM282300 17011KT P6SM VCTS SCT060CB BKN120
      TEMPO 2900/2902 VRB15G25KT 4SM -TSRA BKN040CB
     FM290200 14013G20KT P6SM VCSH BKN080
      TEMPO 2902/2906 -SHRA BKN050
     FM291100 14007KT P6SM BKN030
     FM291500 25007KT P6SM SCT040=



000
FTUS45 KABQ 282100 AAA
TAFLVS
TAF AMD
KLVS 282147Z 2822/2918 16015KT P6SM SCT040 BKN150
     FM282300 17011G18KT P6SM VCTS BKN050CB OVC120
      TEMPO 2900/2903 VRB15G25KT 3SM -TSRA BKN030CB
     FM290300 14010KT P6SM -RA BKN050
     FM290900 17008KT P6SM BKN015
     FM291600 20011KT P6SM SCT035 BKN100=



000
FTUS45 KABQ 282100 AAA
TAFTCC
TAF AMD
KTCC 282146Z 2822/2918 12011KT P6SM SCT050 BKN150
     FM290000 13010KT P6SM VCSH BKN060
     FM290200 16011KT P6SM VCTS BKN050CB OVC100
      TEMPO 2902/2906 VRB15G25KT -SHRA BKN050
     FM290600 VRB05KT P6SM -RA BKN030 OVC050
     FM291400 20006KT P6SM BKN015
     FM291700 20015KT P6SM SCT040 BKN100=



000
FTUS45 KABQ 282100 AAB
TAFGUP
TAF AMD
KGUP 282140Z 2822/2918 VRB05KT P6SM VCSH SCT080 BKN120
     FM282300 17011KT P6SM VCTS SCT070CB BKN100
      TEMPO 2823/2902 VRB15G25KT 4SM -TSRA BKN050CB
     FM290200 13011KT P6SM -RA SCT050 BKN100
     FM290600 VRB05KT P6SM VCSH SCT030 BKN050
     FM291000 VRB03KT P6SM BKN030
     FM291500 22005KT P6SM SCT050 BKN100=



000
FTUS45 KABQ 281900 AAA
TAFGUP
TAF AMD
KGUP 281928Z 2819/2918 17011KT P6SM VCTS SCT060CB BKN110
      TEMPO 2820/2823 VRB15G25KT -TSRA BKN060CB
     FM290000 13011KT P6SM -RA SCT050 BKN100
     FM290400 VRB05KT P6SM VCSH SCT030 BKN050
     FM291500 22005KT P6SM SCT070 BKN100=



000
FTUS45 KABQ 281900 AAA
TAFFMN
TAF AMD
KFMN 281924Z 2819/2918 16011KT P6SM VCTS SCT060CB BKN100
      TEMPO 2819/2823 VRB15G25KT -SHRA BKN060
     FM290000 12010KT P6SM VCSH BKN100
     FM290900 VRB05KT P6SM SCT120 BKN200=



000
FTUS45 KABQ 281700
TAFSAF
TAF
KSAF 281739Z 2818/2918 14010KT P6SM SCT060
     FM282100 16011KT P6SM VCTS SCT070CB BKN120
      TEMPO 2822/2824 VRB15G25KT 4SM -TSRA BKN050CB
     FM290200 14013G20KT P6SM VCSH BKN080
     FM290900 14007KT P6SM BKN030
     FM291500 25007KT P6SM SCT040=



000
FTUS45 KABQ 281700
TAFLVS
TAF
KLVS 281739Z 2818/2918 15010KT P6SM BKN040
     FM282100 19011G18KT P6SM VCTS BKN060CB OVC120
      TEMPO 2822/2901 VRB15G25KT 3SM -TSRA BKN030CB
     FM290300 14010KT P6SM -RA BKN050
     FM290900 17008KT P6SM BKN015
     FM291600 20011KT P6SM SCT035 BKN100=



000
FTUS45 KABQ 281700
TAFFMN
TAF
KFMN 281739Z 2818/2918 15008KT P6SM VCSH SCT080 BKN120
     FM282300 20011KT P6SM VCTS SCT070CB BKN100
      TEMPO 2823/2902 VRB15G25KT -SHRA BKN060
     FM290200 12010KT P6SM VCSH BKN100
     FM290900 VRB05KT P6SM SCT120 BKN200=



000
FTUS45 KABQ 281700
TAFABQ
TAF
KABQ 281739Z 2818/2918 15011KT P6SM SCT060 BKN120
     FM282300 13013G19KT P6SM VCTS SCT070CB BKN120
     FM290200 11015G25KT P6SM VCSH FEW050 BKN100
     FM290600 13007KT P6SM FEW040 SCT120 BKN200=



000
FTUS45 KABQ 281700
TAFGUP
TAF
KGUP 281739Z 2818/2918 20010KT P6SM VCSH SCT080 BKN120
     FM282100 17011KT P6SM VCTS SCT060CB BKN110
      TEMPO 2822/2824 VRB15G25KT -TSRA BKN060CB
     FM290000 13011KT P6SM -RA SCT050 BKN100
     FM290400 VRB05KT P6SM VCSH SCT030 BKN050
     FM291500 22005KT P6SM SCT070 BKN100=



000
FTUS45 KABQ 281700
TAFTCC
TAF
KTCC 281739Z 2818/2918 12011KT P6SM SCT040 BKN100
     FM282100 13011KT P6SM SCT070 BKN200
     FM290100 13010KT P6SM VCSH BKN070
     FM290400 16011KT P6SM VCTS BKN040CB OVC100
     FM290700 VRB05KT P6SM -RA BKN030 OVC050
     FM291400 20006KT P6SM BKN015
     FM291700 20015KT P6SM SCT040 BKN100=



000
FTUS45 KABQ 281700
TAFROW
TAF
KROW 281739Z 2818/2918 04011KT P6SM VCSH SCT080 BKN120
     FM290000 15012G18KT P6SM VCTS SCT070CB BKN150
     FM290200 09010G18KT P6SM VCSH BKN060
     FM290900 07007KT P6SM BKN025
     FM291500 15007KT P6SM SCT040 BKN100=



000
FTUS45 KABQ 281400 AAA
TAFGUP
TAF AMD
KGUP 281448Z 2815/2912 VRB05KT P6SM VCSH SCT080 BKN110
      TEMPO 2815/2817 -RA BKN080
     FM281800 20010KT P6SM FEW070 SCT120
     FM282100 17011KT P6SM VCTS SCT060CB BKN110
      TEMPO 2822/2901 VRB15G25KT -TSRA BKN060CB
     FM290400 VRB05KT P6SM VCSH SCT050 BKN100=



000
FTUS45 KABQ 281300 AAA
TAFTCC
TAF AMD
KTCC 281344Z 2814/2912 04013KT P6SM BKN040 OVC060
      TEMPO 2813/2815 BKN010
     FM281500 10008KT P6SM SCT050 BKN100
     FM282100 16011KT P6SM SCT070 SCT120
     FM290100 23010KT P6SM VCTS BKN070CB
     FM290900 22008KT P6SM VCSH BKN040=



000
FTUS45 KABQ 281300 AAA
TAFROW
TAF AMD
KROW 281318Z 2813/2912 29014G22KT P6SM SCT070 BKN120
     FM281500 14011KT P6SM FEW090 SCT120
     FM282200 15012G18KT P6SM VCTS SCT090CB SCT150
     FM290200 09010G18KT P6SM VCSH BKN060
     FM291000 04007KT P6SM BKN015=



000
FTUS45 KABQ 281300 AAA
TAFABQ
TAF AMD
KABQ 281315Z 2813/2912 10012KT P6SM FEW060 SCT120
     FM281500 13008KT P6SM VCSH SCT080 BKN120
     FM281800 15008KT P6SM SCT080 BKN120
     FM282100 17013KT P6SM VCTS SCT080CB BKN110
     FM290100 09010KT P6SM VCSH BKN100=



000
FTUS45 KABQ 281100 RRA
TAFSAF
TAF
KSAF 281141Z 2812/2912 03010KT P6SM SCT110 BKN150
     FM281600 14010KT P6SM SCT080 SCT130
     FM282000 16010KT P6SM VCTS SCT070CB BKN120
      TEMPO 2821/2823 VRB15G25KT -TSRA BKN060CB
     FM290000 10011KT P6SM VCSH BKN080
     FM290800 14007KT P6SM BKN030=



000
FTUS45 KABQ 281100 RRA
TAFROW
TAF
KROW 281141Z 2812/2912 02010KT P6SM SCT070 BKN090
     FM281600 14011KT P6SM FEW090 SCT120
     FM282200 15012G18KT P6SM VCTS SCT090CB SCT150
     FM290200 09010G18KT P6SM VCSH BKN060
     FM291000 04007KT P6SM BKN015=



000
FTUS45 KABQ 281100 RRA
TAFABQ
TAF
KABQ 281141Z 2812/2912 35007KT P6SM FEW070 SCT120
     FM281500 06008KT P6SM VCSH SCT080 BKN120
     FM281800 13008KT P6SM SCT080 BKN120
     FM282100 17013KT P6SM VCTS SCT080CB BKN110
     FM290100 09010KT P6SM VCSH BKN100=



000
FTUS45 KABQ 281100 RRA
TAFGUP
TAF
KGUP 281141Z 2812/2912 VRB05KT P6SM VCSH SCT080 BKN110
      TEMPO 2813/2815 -RA BKN080
     FM281700 20010KT P6SM FEW070 SCT120
     FM282100 17011KT P6SM VCTS SCT060CB BKN110
      TEMPO 2822/2901 VRB15G25KT -TSRA BKN060CB
     FM290400 VRB05KT P6SM VCSH SCT050 BKN100=



000
FTUS45 KABQ 281100 RRA
TAFTCC
TAF
KTCC 281141Z 2812/2912 04013KT P6SM BKN040 OVC060
     FM281500 10008KT P6SM SCT050 BKN100
     FM282100 16011KT P6SM SCT070 SCT120
     FM290100 23010KT P6SM VCTS BKN070CB
     FM290900 22008KT P6SM VCSH BKN040=



000
FTUS45 KABQ 281100 RRA
TAFLVS
TAF
KLVS 281141Z 2812/2912 05008KT P6SM BKN120
      TEMPO 2812/2815 BKN030
     FM281600 15009KT P6SM SCT060 BKN130
     FM282100 19011G18KT P6SM VCTS BKN060CB OVC120
      TEMPO 2822/2824 VRB15G25KT -TSRA BKN050CB
     FM290100 16010KT P6SM VCSH BKN060
     FM290600 18098KT P6SM BKN015=



000
FTUS45 KABQ 281100 RRA
TAFFMN
TAF
KFMN 281141Z 2812/2912 08008KT P6SM VCSH SCT100 BKN120
     FM281600 12008KT P6SM FEW070 BKN120
     FM282200 20010KT P6SM VCTS SCT070CB SCT120
      TEMPO 2823/2902 VRB15G25KT -TSRA BKN060CB
     FM290400 12010KT P6SM VCSH BKN100=



000
FTUS45 KABQ 281000 AAA
TAFROW
TAF AMD
KROW 281000Z 2810/2906 35010G20KT P6SM BKN080
     FM281200 02010KT P6SM SCT070 BKN090
     FM281600 14011KT P6SM FEW090 SCT120
     FM282200 15012G18KT P6SM VCTS SCT090CB SCT150
     FM290200 09010G18KT P6SM VCSH BKN060=



000
FTUS45 KABQ 280800 AAA
TAFFMN
TAF AMD
KFMN 280858Z 2809/2906 11008KT P6SM VCSH BKN110
      TEMPO 2810/2812 -RA BKN050 OVC100
     FM281600 12010KT P6SM FEW070 SCT120
     FM282200 21010KT P6SM SCT070 SCT120
     FM290100 15011KT P6SM VCTS SCT070CB BKN130
     FM290400 12010KT P6SM VCSH BKN100=



000
FTUS45 KABQ 280800 AAA
TAFTCC
TAF AMD
KTCC 280853Z 2809/2906 01018KT P6SM BKN035 OVC050
     FM281300 06010KT P6SM SCT035 BKN050
     FM281500 10008KT P6SM FEW070 BKN100
     FM282100 16011KT P6SM SCT070 SCT120
     FM290100 23010KT P6SM VCSH BKN070=



000
FTUS45 KABQ 280500
TAFTCC
TAF
KTCC 280538Z 2806/2906 05011KT P6SM VCSH BKN090 BKN120
     FM280900 05006KT P6SM SCT100
     FM281500 10008KT P6SM FEW070 SCT120
     FM282100 16011KT P6SM SCT070 SCT120
     FM290100 23010KT P6SM VCSH BKN070=



000
FTUS45 KABQ 280500
TAFABQ
TAF
KABQ 280538Z 2806/2906 09011KT P6SM VCSH SCT060 SCT100
     FM281000 VRB06KT P6SM FEW060 SCT100
     FM281500 13008KT P6SM SCT090 SCT150
     FM282100 17011KT P6SM VCTS SCT080CB BKN130
     FM290000 09010KT P6SM VCSH BKN100=



000
FTUS45 KABQ 280500
TAFSAF
TAF
KSAF 280538Z 2806/2906 01010KT P6SM BKN090
     FM280900 13010KT P6SM SCT110
     FM281600 16010KT P6SM SCT080 SCT130
     FM282100 16010KT P6SM VCTS SCT070CB BKN130
     FM290000 10011KT P6SM VCSH BKN080=



000
FTUS45 KABQ 280500
TAFROW
TAF
KROW 280538Z 2806/2906 VRB06KT P6SM SCT120
     FM281600 14011KT P6SM FEW090
     FM282200 15012G18KT P6SM VCTS SCT090CB SCT150
     FM290200 09010G18KT P6SM VCSH BKN060=



000
FTUS45 KABQ 280500
TAFLVS
TAF
KLVS 280538Z 2806/2906 02010KT P6SM VCSH BKN060 BKN090
     FM280900 11006KT P6SM BKN030
     FM281600 19011KT P6SM SCT060 BKN130
     FM282100 19011G18KT P6SM VCTS BKN060CB OVC120
     FM290100 16010KT P6SM VCSH BKN060=



000
FTUS45 KABQ 280500
TAFFMN
TAF
KFMN 280538Z 2806/2906 09008KT P6SM BKN110
     FM281600 12010KT P6SM FEW070 SCT120
     FM282200 21010KT P6SM SCT070 SCT120
     FM290100 15011KT P6SM VCTS SCT070CB BKN130
     FM290400 12010KT P6SM VCSH BKN100=



000
FTUS45 KABQ 280500
TAFGUP
TAF
KGUP 280538Z 2806/2906 VRB06KT P6SM VCSH BKN080
     FM281100 VRB05KT P6SM BKN110
     FM281500 20010KT P6SM FEW070 SCT120
     FM282300 16011KT P6SM VCTS SCT060CB BKN110
     FM290400 VRB05KT P6SM VCSH BKN100=



000
FTUS45 KABQ 280400 AAA
TAFABQ
TAF AMD
KABQ 280438Z 2805/2824 05010KT P6SM SCT110 SCT200
     FM280600 06011KT P6SM VCSH BKN090 BKN150
     FM281000 09010G18KT P6SM FEW050 SCT100
     FM281600 13008KT P6SM SCT090 SCT150
     FM282200 13011KT P6SM VCTS BKN080CB BKN130=



000
FTUS45 KABQ 280300 AAA
TAFLVS
TAF AMD
KLVS 280359Z 2804/2824 VRB15G23KT 5SM TSRA BKN050CB
     FM280600 11008KT P6SM VCTS SCT060CB BKN080
     FM280900 11006KT P6SM BKN030
     FM281700 17011KT P6SM SCT060 BKN130
     FM282100 19011G18KT P6SM VCTS BKN060CB OVC120=



    US Dept of Commerce
    National Oceanic and Atmospheric Administration
    National Weather Service
    1325 East West Highway
    Silver Spring, MD 20910
    Page Author: NWS Internet Services Team
Disclaimer
Information Quality
Credits
Glossary
Privacy Policy
Freedom of Information Act (FOIA)
About Us
Career Opportunities